This is the latest recevied weather packets stored in our database for station/object KB4KY. If no packets are shown the sender has not sent any weather packets the latest 1 day(s).
| Time | Temp. | Humidity | Pressure | Rain* | Wind** | Luminosity | Snow |
|---|---|---|---|---|---|---|---|
| 1778033881 | 17.22° C | 87% | 1006.7 hPa | 0 mm | - | - | - |
| 1778033287 | 17.22° C | 84% | 1006.7 hPa | 0 mm | - | - | - |
| 1778032679 | 17.78° C | 80% | 1006.6 hPa | 0 mm | - | - | - |
| 1778032376 | 17.78° C | 80% | 1006.6 hPa | 0 mm | - | - | - |
| 1778032241 | 17.22° C | 83% | 1006.1 hPa | 0 mm | - | - | - |
| 1778031774 | 17.22° C | 82% | 1006 hPa | 0 mm | - | - | - |
| 1778031488 | 17.22° C | 83% | 1006.1 hPa | 0 mm | - | - | - |
| 1778031174 | 16.67° C | 85% | 1006.1 hPa | 0.25 mm | - | - | - |
| 1778031170 | 16.67° C | 87% | 1006.2 hPa | 0.25 mm | - | - | - |
| 1778030873 | 16.67° C | 87% | 1006.2 hPa | 0.25 mm | - | - | - |
| 1778030573 | 16.67° C | 88% | 1006 hPa | 0.25 mm | - | - | - |
| 1778029975 | 16.67° C | 91% | 1005.8 hPa | 0.25 mm | - | - | - |
| 1778029675 | 16.67° C | 92% | 1005.7 hPa | 0.25 mm | - | - | - |
| 1778029376 | 16.67° C | 92% | 1005.6 hPa | 0.25 mm | - | - | - |
| 1778029073 | 16.67° C | 92% | 1005.5 hPa | 0.25 mm | - | - | - |
| 1778028772 | 16.67° C | 91% | 1005.5 hPa | 0.25 mm | - | - | - |
| 1778028508 | 17.22° C | 90% | 1005.5 hPa | 0.25 mm | - | - | - |
| 1778028471 | 17.22° C | 90% | 1005.5 hPa | 0.25 mm | - | - | - |
| 1778028175 | 17.22° C | 91% | 1005.4 hPa | 0.25 mm | - | - | - |
| 1778027873 | 17.22° C | 88% | 1005.6 hPa | 0.25 mm | - | - | - |
| 1778027580 | 17.22° C | 87% | 1005.7 hPa | 0 mm | - | - | - |
| 1778027270 | 17.78° C | 87% | 1005.8 hPa | 0.76 mm | - | - | - |
| 1778026972 | 17.78° C | 87% | 1005.5 hPa | 0.76 mm | - | - | - |
| 1778026670 | 17.78° C | 87% | 1005.5 hPa | 0.76 mm | - | - | - |
| 1778023668 | 20.56° C | 65% | 1006 hPa | 0 mm | - | - | - |
* Rain latest hour (hover to see other rain measurements)
** Current wind speed in m/s (hover to see current wind gust speed)